createdAt,value
2022-10-18T00:00:53.215Z,89.17
2022-10-18T00:01:58.118Z,89.07
2022-10-18T00:03:01.185Z,88.97
2022-10-18T00:04:05.111Z,89.26
2022-10-18T00:05:08.728Z,89.38
2022-10-18T00:06:12.941Z,89.69
2022-10-18T00:07:15.827Z,89.57
2022-10-18T00:08:20.480Z,89.40
2022-10-18T00:09:23.579Z,89.64
2022-10-18T00:10:27.873Z,89.37
2022-10-18T00:11:30.799Z,89.60
2022-10-18T00:12:35.851Z,89.80
2022-10-18T00:13:38.927Z,89.89
2022-10-18T00:14:44.370Z,89.70
2022-10-18T00:15:51.180Z,90.15
2022-10-18T00:16:55.237Z,89.82
2022-10-18T00:17:58.191Z,90.18
2022-10-18T00:19:02.114Z,90.20
2022-10-18T00:20:06.788Z,90.79
2022-10-18T00:21:13.533Z,90.86
2022-10-18T00:22:16.460Z,90.73
2022-10-18T00:23:20.401Z,90.93
2022-10-18T00:24:23.259Z,90.79
2022-10-18T00:25:27.347Z,90.83
2022-10-18T00:26:31.397Z,90.84
2022-10-18T00:27:36.940Z,90.74
2022-10-18T00:28:40.631Z,90.97
2022-10-18T00:29:46.069Z,90.59
2022-10-18T00:31:58.006Z,90.63
2022-10-18T00:33:00.868Z,90.80
2022-10-18T00:34:06.317Z,90.71
2022-10-18T00:35:09.931Z,90.63
2022-10-18T00:36:14.662Z,90.58
2022-10-18T00:37:17.880Z,90.69
2022-10-18T00:38:21.813Z,90.56
2022-10-18T00:39:24.756Z,90.56
2022-10-18T00:40:28.821Z,90.43
2022-10-18T00:41:33.013Z,90.11
2022-10-18T00:42:39.858Z,90.41
2022-10-18T00:43:53.250Z,90.33
2022-10-18T00:45:08.997Z,90.59
2022-10-18T00:46:11.941Z,90.40
2022-10-18T00:47:18.225Z,90.37
2022-10-18T00:48:22.479Z,90.31
2022-10-18T00:49:28.329Z,90.66
2022-10-18T00:50:34.077Z,90.65
2022-10-18T00:51:41.811Z,90.56
2022-10-18T00:52:49.659Z,90.33
2022-10-18T00:53:52.821Z,90.19
2022-10-18T00:54:57.492Z,90.53
2022-10-18T00:56:01.560Z,90.57
2022-10-18T00:57:05.422Z,90.59
2022-10-18T00:58:09.979Z,90.75
2022-10-18T00:59:14.709Z,90.42
2022-10-18T01:00:20.758Z,90.43
2022-10-18T01:01:27.486Z,90.55
2022-10-18T01:02:34.031Z,90.51
2022-10-18T01:03:39.041Z,90.08
2022-10-18T01:04:42.157Z,90.54
2022-10-18T01:05:48.388Z,90.60
2022-10-18T01:08:12.120Z,90.36
2022-10-18T01:09:23.101Z,90.29
2022-10-18T01:10:31.150Z,90.68
2022-10-18T01:11:44.857Z,89.99
2022-10-18T01:12:54.263Z,90.22
2022-10-18T01:14:04.198Z,90.97
2022-10-18T01:15:12.932Z,90.77
2022-10-18T01:16:20.892Z,90.95
2022-10-18T01:17:31.829Z,91.11
2022-10-18T01:18:38.348Z,91.27
2022-10-18T01:20:17.081Z,91.56
2022-10-18T01:21:36.478Z,91.80
2022-10-18T01:22:43.849Z,91.61
2022-10-18T01:24:04.220Z,91.63
2022-10-18T01:25:17.438Z,91.50
2022-10-18T01:26:30.683Z,92.30
2022-10-18T01:27:43.250Z,92.03
2022-10-18T01:28:54.874Z,91.85
2022-10-18T01:30:30.180Z,92.05
2022-10-18T01:31:39.650Z,92.49
2022-10-18T01:32:46.691Z,92.52
2022-10-18T01:33:53.659Z,92.00
2022-10-18T01:34:59.830Z,91.88
2022-10-18T01:36:08.540Z,91.77
2022-10-18T01:37:15.101Z,91.84
2022-10-18T01:38:20.294Z,91.68
2022-10-18T01:39:26.368Z,91.79
2022-10-18T01:40:31.252Z,91.63
2022-10-18T01:41:35.818Z,91.67
2022-10-18T01:42:38.742Z,91.67
2022-10-18T01:43:43.643Z,91.14
2022-10-18T01:44:47.478Z,91.34
2022-10-18T01:45:51.569Z,91.80
2022-10-18T01:46:58.107Z,91.44
2022-10-18T01:48:01.669Z,91.30
2022-10-18T01:49:06.353Z,90.87
2022-10-18T01:50:09.863Z,91.10
2022-10-18T01:51:13.900Z,91.05
2022-10-18T01:52:17.279Z,91.04
2022-10-18T01:53:26.037Z,91.08
2022-10-18T01:54:32.049Z,90.83
2022-10-18T01:55:39.892Z,90.90
2022-10-18T01:56:48.465Z,90.93
2022-10-18T01:57:59.230Z,90.85
2022-10-18T01:59:09.128Z,90.59
2022-10-18T02:00:14.648Z,90.83
2022-10-18T02:01:22.140Z,90.62
2022-10-18T02:02:37.824Z,90.64
2022-10-18T02:03:44.512Z,90.40
2022-10-18T02:04:52.810Z,90.71
2022-10-18T02:05:59.518Z,90.79
2022-10-18T02:07:08.628Z,90.64
2022-10-18T02:08:23.707Z,90.67
2022-10-18T02:09:33.211Z,90.55
2022-10-18T02:10:40.460Z,90.60
2022-10-18T02:11:45.057Z,90.71
2022-10-18T02:12:48.991Z,90.66
2022-10-18T02:13:56.569Z,90.55
2022-10-18T02:15:01.110Z,91.00
2022-10-18T02:16:09.430Z,90.90
2022-10-18T02:17:13.266Z,90.86
2022-10-18T02:18:21.431Z,90.88
2022-10-18T02:19:26.984Z,90.62
2022-10-18T02:20:32.565Z,90.80
2022-10-18T02:21:35.683Z,90.46
2022-10-18T02:22:42.687Z,90.45
2022-10-18T02:23:46.982Z,90.78
2022-10-18T02:24:53.646Z,90.80
2022-10-18T02:25:56.690Z,90.74
2022-10-18T02:27:00.731Z,90.88
2022-10-18T02:28:05.508Z,91.04
2022-10-18T02:29:08.929Z,90.75
2022-10-18T02:30:15.589Z,91.13
2022-10-18T02:31:20.759Z,90.91
2022-10-18T02:32:29.183Z,90.89
2022-10-18T02:33:37.881Z,91.08
2022-10-18T02:34:44.881Z,91.18
2022-10-18T02:35:50.611Z,91.31
2022-10-18T02:36:55.847Z,91.63
2022-10-18T02:37:59.521Z,91.52
2022-10-18T02:39:05.798Z,91.69
2022-10-18T02:40:10.422Z,91.91
2022-10-18T02:41:14.430Z,91.51
2022-10-18T02:42:17.459Z,91.59
2022-10-18T02:43:21.397Z,91.30
2022-10-18T02:44:24.860Z,91.50
2022-10-18T02:45:28.909Z,91.70
2022-10-18T02:46:32.048Z,91.78
2022-10-18T02:47:36.039Z,91.65
2022-10-18T02:48:40.392Z,91.87
2022-10-18T02:49:44.399Z,91.91
2022-10-18T02:50:47.278Z,91.87
2022-10-18T02:51:51.261Z,91.95
2022-10-18T02:52:54.162Z,91.88
2022-10-18T02:53:58.740Z,91.81
2022-10-18T02:55:01.632Z,91.84
2022-10-18T02:56:06.034Z,92.04
2022-10-18T02:57:08.938Z,91.64
2022-10-18T02:58:13.058Z,91.53
2022-10-18T02:59:16.249Z,91.49
2022-10-18T03:00:20.489Z,91.44
2022-10-18T03:01:25.309Z,91.15
2022-10-18T03:02:29.470Z,90.95
2022-10-18T03:03:33.430Z,90.83
2022-10-18T03:04:39.125Z,90.92
2022-10-18T03:05:41.978Z,90.98
2022-10-18T03:06:46.409Z,91.03
2022-10-18T03:07:49.309Z,90.97
2022-10-18T03:08:53.317Z,90.77
2022-10-18T03:09:56.416Z,90.60
2022-10-18T03:11:00.659Z,90.82
2022-10-18T03:13:22.140Z,90.93
2022-10-18T03:14:25.397Z,91.05
2022-10-18T03:15:29.349Z,91.24
2022-10-18T03:16:32.459Z,91.08
2022-10-18T03:17:36.541Z,91.01
2022-10-18T03:18:39.500Z,90.73
2022-10-18T03:19:44.948Z,91.02
2022-10-18T03:20:48.082Z,90.62
2022-10-18T03:21:52.048Z,91.04
2022-10-18T03:22:55.090Z,90.93
2022-10-18T03:24:00.244Z,90.93
2022-10-18T03:25:03.379Z,90.70
2022-10-18T03:26:09.900Z,90.91
2022-10-18T03:27:12.861Z,91.23
2022-10-18T03:28:17.252Z,91.66
2022-10-18T03:29:20.810Z,91.80
2022-10-18T03:30:27.793Z,91.47
2022-10-18T03:32:40.460Z,91.45
2022-10-18T03:33:46.981Z,91.21
2022-10-18T03:34:52.408Z,91.50
2022-10-18T03:35:55.839Z,91.30
2022-10-18T03:37:02.146Z,91.13
2022-10-18T03:38:07.720Z,91.22
2022-10-18T03:39:13.279Z,91.33
2022-10-18T03:40:16.461Z,91.54
2022-10-18T03:41:21.092Z,91.41
2022-10-18T03:42:24.112Z,91.33
2022-10-18T03:43:28.594Z,91.46
2022-10-18T03:44:31.609Z,91.53
2022-10-18T03:45:35.751Z,91.54
2022-10-18T03:46:38.978Z,91.42
2022-10-18T03:47:43.603Z,91.60
2022-10-18T03:48:47.627Z,91.75
2022-10-18T03:49:56.246Z,91.59
2022-10-18T03:51:01.450Z,91.58
2022-10-18T03:52:04.357Z,91.36
2022-10-18T03:53:11.283Z,91.56
2022-10-18T03:54:14.490Z,91.32
2022-10-18T03:55:18.951Z,91.24
2022-10-18T03:56:21.820Z,91.08
2022-10-18T03:57:26.318Z,91.58
2022-10-18T03:58:29.242Z,91.26
2022-10-18T03:59:33.389Z,90.96
2022-10-18T04:00:39.256Z,90.87
2022-10-18T04:01:43.231Z,90.91
2022-10-18T04:02:50.800Z,91.08
2022-10-18T04:03:57.709Z,91.26
2022-10-18T04:05:02.262Z,91.28
2022-10-18T04:06:08.037Z,91.01
2022-10-18T04:07:11.177Z,91.35
2022-10-18T04:08:15.249Z,91.26
2022-10-18T04:09:18.651Z,91.36
2022-10-18T04:10:25.804Z,91.38
2022-10-18T04:11:28.667Z,91.37
2022-10-18T04:12:33.319Z,91.77
2022-10-18T04:13:36.609Z,91.88
2022-10-18T04:14:40.551Z,91.88
2022-10-18T04:15:43.899Z,91.74
2022-10-18T04:16:47.837Z,91.62
2022-10-18T04:17:51.019Z,91.99
2022-10-18T04:18:55.223Z,92.45
2022-10-18T04:19:58.452Z,92.72
2022-10-18T04:21:03.860Z,92.61
2022-10-18T04:22:06.887Z,92.16
2022-10-18T04:23:10.960Z,92.00
2022-10-18T04:24:14.352Z,91.73
2022-10-18T04:25:18.727Z,92.15
2022-10-18T04:26:22.050Z,91.92
2022-10-18T04:27:26.052Z,92.11
2022-10-18T04:28:29.196Z,92.06
2022-10-18T04:29:33.160Z,91.80
2022-10-18T04:30:36.399Z,91.87
2022-10-18T04:31:40.327Z,91.98
2022-10-18T04:32:43.266Z,91.79
2022-10-18T04:33:47.400Z,91.49
2022-10-18T04:34:50.816Z,91.62
2022-10-18T04:35:55.125Z,91.48
2022-10-18T04:37:00.529Z,91.75
2022-10-18T04:38:03.478Z,91.74
2022-10-18T04:39:07.427Z,91.91
2022-10-18T04:40:12.501Z,91.89
2022-10-18T04:41:16.517Z,91.64
2022-10-18T04:42:19.567Z,91.77
2022-10-18T04:43:23.505Z,91.58
2022-10-18T04:44:26.389Z,91.62
2022-10-18T04:45:30.449Z,91.84
2022-10-18T04:46:34.430Z,91.56
2022-10-18T04:47:38.700Z,91.34
2022-10-18T04:48:42.018Z,91.58
2022-10-18T04:49:46.845Z,91.52
2022-10-18T04:50:50.102Z,91.47
2022-10-18T04:51:54.250Z,91.68
2022-10-18T04:52:58.602Z,91.63
2022-10-18T04:54:02.561Z,91.87
2022-10-18T04:55:07.421Z,91.97
2022-10-18T04:56:10.365Z,91.51
2022-10-18T04:57:14.291Z,91.81
2022-10-18T04:58:17.538Z,91.62
2022-10-18T04:59:21.990Z,91.96
2022-10-18T05:00:25.608Z,91.81
2022-10-18T05:01:29.755Z,92.02
2022-10-18T05:02:32.881Z,91.88
2022-10-18T05:03:36.988Z,91.84
2022-10-18T05:04:40.038Z,92.04
2022-10-18T05:06:03.247Z,92.08
2022-10-18T05:07:06.810Z,92.23
2022-10-18T05:08:12.221Z,92.34
2022-10-18T05:09:15.538Z,92.09
2022-10-18T05:10:19.888Z,92.23
2022-10-18T05:11:22.986Z,92.10
2022-10-18T05:12:27.043Z,92.14
2022-10-18T05:13:30.483Z,92.12
2022-10-18T05:14:34.450Z,92.57
2022-10-18T05:15:37.357Z,92.56
2022-10-18T05:16:41.379Z,92.68
2022-10-18T05:17:44.409Z,92.73
2022-10-18T05:18:48.484Z,92.92
2022-10-18T05:19:51.381Z,92.87
2022-10-18T05:20:55.450Z,92.57
2022-10-18T05:21:58.454Z,92.67
2022-10-18T05:23:02.408Z,92.93
2022-10-18T05:24:07.177Z,93.51
2022-10-18T05:25:11.566Z,93.67
2022-10-18T05:26:14.510Z,93.89
2022-10-18T05:27:18.517Z,94.11
2022-10-18T05:28:38.763Z,94.39
2022-10-18T05:29:43.889Z,94.41
2022-10-18T05:30:46.893Z,94.47
2022-10-18T05:31:51.112Z,94.42
2022-10-18T05:32:54.946Z,94.25
2022-10-18T05:33:59.180Z,94.39
2022-10-18T05:35:02.499Z,94.66
2022-10-18T05:36:07.139Z,95.17
2022-10-18T05:37:10.367Z,95.40
2022-10-18T05:38:14.513Z,95.82
2022-10-18T05:39:20.499Z,95.65
2022-10-18T05:40:23.509Z,95.88
2022-10-18T05:41:27.617Z,95.75
2022-10-18T05:42:31.114Z,96.81
2022-10-18T05:43:36.100Z,97.28
2022-10-18T05:44:39.111Z,97.36
2022-10-18T05:45:49.165Z,96.30
2022-10-18T05:46:53.245Z,96.74
2022-10-18T05:47:56.390Z,96.45
2022-10-18T05:49:00.576Z,96.40
2022-10-18T05:50:03.761Z,96.75
2022-10-18T05:51:07.907Z,96.15
2022-10-18T05:52:10.808Z,96.78
2022-10-18T05:53:35.202Z,96.86
2022-10-18T05:54:40.161Z,97.95
2022-10-18T05:55:44.223Z,97.81
2022-10-18T05:56:47.327Z,98.51
2022-10-18T05:57:51.595Z,98.43
2022-10-18T05:58:54.619Z,98.48
2022-10-18T05:59:58.598Z,98.88
2022-10-18T06:01:02.384Z,99.29
2022-10-18T06:02:06.541Z,99.24
2022-10-18T06:03:09.449Z,99.53
2022-10-18T06:04:13.707Z,99.79
2022-10-18T06:05:16.757Z,99.32
2022-10-18T06:06:20.790Z,98.91
2022-10-18T06:07:23.786Z,98.75
2022-10-18T06:08:27.848Z,98.85
2022-10-18T06:09:30.907Z,99.20
2022-10-18T06:10:36.468Z,100.00
2022-10-18T06:11:39.430Z,100.00
2022-10-18T06:12:43.509Z,100.00
2022-10-18T06:13:48.813Z,100.00
2022-10-18T06:14:51.782Z,100.00
2022-10-18T06:15:57.725Z,100.00
2022-10-18T06:17:00.708Z,100.00
2022-10-18T06:18:04.781Z,100.00
2022-10-18T06:19:07.830Z,100.00
2022-10-18T06:20:12.337Z,100.00
2022-10-18T06:21:15.460Z,100.00
2022-10-18T06:22:19.582Z,100.00
2022-10-18T06:23:22.580Z,100.00
2022-10-18T06:24:26.888Z,99.77
2022-10-18T06:25:29.838Z,100.00
2022-10-18T06:26:35.328Z,100.00
2022-10-18T06:27:38.259Z,100.00
2022-10-18T06:28:42.281Z,100.00
2022-10-18T06:29:46.370Z,100.00
2022-10-18T06:30:49.441Z,100.00
2022-10-18T06:31:53.436Z,99.48
2022-10-18T06:32:59.793Z,100.00
2022-10-18T06:34:04.640Z,100.00
2022-10-18T06:35:08.632Z,100.00
2022-10-18T06:36:14.906Z,100.00
2022-10-18T06:37:18.010Z,100.00
2022-10-18T06:38:22.143Z,100.00
2022-10-18T06:39:26.357Z,100.00
2022-10-18T06:40:31.038Z,100.00
2022-10-18T06:41:36.483Z,100.00
2022-10-18T06:43:00.654Z,100.00
2022-10-18T06:44:14.117Z,100.00
2022-10-18T06:45:18.563Z,100.00
2022-10-18T06:46:22.490Z,100.00
2022-10-18T06:47:25.490Z,100.00
2022-10-18T06:48:29.428Z,100.00
2022-10-18T06:49:32.320Z,99.94
2022-10-18T06:50:36.389Z,99.45
2022-10-18T06:51:40.479Z,99.66
2022-10-18T06:52:43.660Z,99.01
2022-10-18T06:54:05.922Z,99.01
2022-10-18T06:55:11.819Z,98.44
2022-10-18T06:56:14.718Z,97.90
2022-10-18T06:57:20.491Z,97.62
2022-10-18T06:58:23.414Z,97.22
2022-10-18T06:59:30.374Z,97.12
2022-10-18T07:00:34.493Z,96.38
2022-10-18T07:01:38.690Z,96.13
2022-10-18T07:02:42.857Z,95.58
2022-10-18T07:03:46.762Z,94.98
2022-10-18T07:04:50.818Z,94.87
2022-10-18T07:05:53.795Z,94.39
2022-10-18T07:06:57.801Z,94.47
2022-10-18T07:08:00.751Z,94.48
2022-10-18T07:09:05.002Z,94.13
2022-10-18T07:10:11.190Z,93.47
2022-10-18T07:11:18.724Z,93.06
2022-10-18T07:12:23.186Z,92.23
2022-10-18T07:13:32.911Z,91.74
2022-10-18T07:14:36.310Z,90.79
2022-10-18T07:15:40.321Z,90.12
2022-10-18T07:16:44.386Z,89.13
2022-10-18T07:17:48.126Z,88.59
2022-10-18T07:18:53.398Z,87.81
2022-10-18T07:19:56.409Z,87.45
2022-10-18T07:21:03.081Z,87.36
2022-10-18T07:22:07.268Z,87.11
2022-10-18T07:23:11.947Z,86.91
2022-10-18T07:24:16.132Z,87.07
2022-10-18T07:25:19.117Z,87.08
2022-10-18T07:26:25.151Z,87.03
2022-10-18T07:27:30.942Z,87.03
2022-10-18T07:28:34.927Z,86.59
2022-10-18T07:29:39.929Z,86.58
2022-10-18T07:30:43.008Z,86.46
2022-10-18T07:31:47.278Z,86.05
2022-10-18T07:32:52.883Z,85.76
2022-10-18T07:33:55.780Z,85.56
2022-10-18T07:34:59.840Z,85.15
2022-10-18T07:36:03.201Z,84.79
2022-10-18T07:37:07.309Z,84.64
2022-10-18T07:38:10.440Z,84.36
2022-10-18T07:39:14.572Z,84.26
2022-10-18T07:40:17.758Z,84.46
2022-10-18T07:41:22.537Z,84.55
2022-10-18T07:42:25.800Z,84.61
2022-10-18T07:43:31.851Z,84.51
2022-10-18T07:44:34.909Z,84.26
2022-10-18T07:45:39.096Z,83.79
2022-10-18T07:46:43.240Z,83.57
2022-10-18T07:47:46.684Z,83.39
2022-10-18T07:48:51.311Z,83.25
2022-10-18T07:49:56.137Z,82.50
2022-10-18T07:51:00.537Z,82.20
2022-10-18T07:52:05.057Z,82.34
2022-10-18T07:53:08.096Z,82.26
2022-10-18T07:54:12.079Z,81.42
2022-10-18T07:55:16.370Z,81.06
2022-10-18T07:56:22.668Z,80.94
2022-10-18T07:57:26.760Z,80.90
2022-10-18T07:58:32.738Z,80.19
2022-10-18T07:59:37.022Z,80.05
2022-10-18T08:00:40.094Z,79.96
2022-10-18T08:01:44.250Z,80.16
2022-10-18T08:02:47.361Z,80.00
2022-10-18T08:03:53.180Z,79.94
2022-10-18T08:04:57.445Z,78.74
2022-10-18T08:06:00.570Z,79.00
2022-10-18T08:07:04.577Z,78.52
2022-10-18T08:08:08.182Z,77.76
2022-10-18T08:09:12.572Z,77.87
2022-10-18T08:10:15.776Z,77.81
2022-10-18T08:11:22.039Z,77.43
2022-10-18T08:12:26.008Z,77.29
2022-10-18T08:13:30.710Z,76.52
2022-10-18T08:14:34.728Z,76.57
2022-10-18T08:15:37.592Z,75.98
2022-10-18T08:16:41.652Z,76.30
2022-10-18T08:17:44.631Z,75.87
2022-10-18T08:18:48.640Z,75.60
2022-10-18T08:20:11.353Z,75.98
2022-10-18T08:21:18.163Z,75.16
2022-10-18T08:22:23.018Z,74.24
2022-10-18T08:23:27.128Z,74.26
2022-10-18T08:24:31.120Z,73.76
2022-10-18T08:25:34.115Z,73.56
2022-10-18T08:26:38.109Z,73.56
2022-10-18T08:27:41.009Z,73.31
2022-10-18T08:28:54.129Z,73.44
2022-10-18T08:30:03.050Z,73.01
2022-10-18T08:31:07.210Z,72.28
2022-10-18T08:32:11.228Z,71.85
2022-10-18T08:33:14.328Z,71.37
2022-10-18T08:34:19.792Z,71.10
2022-10-18T08:35:23.049Z,71.22
2022-10-18T08:36:27.430Z,71.28
2022-10-18T08:37:30.963Z,71.23
2022-10-18T08:38:35.548Z,71.09
2022-10-18T08:39:38.402Z,70.37
2022-10-18T08:40:44.937Z,71.14
2022-10-18T08:42:09.649Z,69.96
2022-10-18T08:43:21.747Z,69.93
2022-10-18T08:44:29.248Z,69.90
2022-10-18T08:45:43.126Z,69.70
2022-10-18T08:46:48.466Z,69.31
2022-10-18T08:47:54.059Z,68.50
2022-10-18T08:48:57.567Z,68.49
2022-10-18T08:50:04.128Z,67.87
2022-10-18T08:51:14.709Z,67.72
2022-10-18T08:52:31.476Z,67.11
2022-10-18T08:53:45.609Z,67.90
2022-10-18T08:54:54.889Z,67.75
2022-10-18T08:56:04.470Z,67.22
2022-10-18T08:57:15.238Z,67.72
2022-10-18T08:58:21.474Z,67.58
2022-10-18T08:59:25.876Z,67.56
2022-10-18T09:00:34.997Z,67.29
2022-10-18T09:01:44.702Z,67.27
2022-10-18T09:02:57.501Z,65.94
2022-10-18T09:04:19.601Z,64.13
2022-10-18T09:05:28.888Z,66.56
2022-10-18T09:06:34.406Z,66.08
2022-10-18T09:08:13.136Z,65.29
2022-10-18T09:09:25.087Z,65.75
2022-10-18T09:10:36.576Z,65.25
2022-10-18T09:11:52.348Z,65.42
2022-10-18T09:13:09.479Z,64.84
2022-10-18T09:14:46.118Z,63.35
2022-10-18T09:15:56.981Z,63.80
2022-10-18T09:17:09.548Z,63.93
2022-10-18T09:18:26.157Z,62.32
2022-10-18T09:19:39.679Z,61.18
2022-10-18T09:20:51.652Z,61.71
2022-10-18T09:21:57.124Z,61.40
2022-10-18T09:23:06.589Z,61.35
2022-10-18T09:24:13.636Z,61.81
2022-10-18T09:25:21.066Z,62.07
2022-10-18T09:26:26.377Z,59.95
2022-10-18T09:27:33.910Z,60.54
2022-10-18T09:28:43.322Z,59.79
2022-10-18T09:29:58.557Z,59.45
2022-10-18T09:31:08.597Z,60.60
2022-10-18T09:32:22.832Z,60.88
2022-10-18T09:33:35.257Z,60.65
2022-10-18T09:34:43.382Z,61.30
2022-10-18T09:35:51.368Z,59.25
2022-10-18T09:36:56.176Z,60.44
2022-10-18T09:38:04.059Z,60.16
2022-10-18T09:39:13.071Z,59.49
2022-10-18T09:40:19.127Z,60.33
2022-10-18T09:41:27.079Z,59.98
2022-10-18T09:42:33.394Z,59.23
2022-10-18T09:43:47.686Z,59.13
2022-10-18T09:44:54.727Z,59.38
2022-10-18T09:45:59.208Z,59.52
2022-10-18T09:47:13.409Z,58.71
2022-10-18T09:48:22.196Z,59.46
2022-10-18T09:49:31.487Z,58.46
2022-10-18T09:50:38.107Z,58.06
2022-10-18T09:51:43.609Z,57.61
2022-10-18T09:52:51.289Z,58.04
2022-10-18T09:54:04.572Z,57.21
2022-10-18T09:55:14.149Z,58.00
2022-10-18T09:56:21.817Z,58.05
2022-10-18T09:57:27.891Z,57.71
2022-10-18T09:58:41.944Z,56.47
2022-10-18T09:59:48.319Z,57.83
2022-10-18T10:00:52.344Z,57.48
2022-10-18T10:01:56.728Z,57.43
2022-10-18T10:03:01.599Z,57.58
2022-10-18T10:04:06.068Z,57.34
2022-10-18T10:05:14.133Z,57.12
2022-10-18T10:06:23.723Z,57.32
2022-10-18T10:07:32.672Z,57.10
2022-10-18T10:08:38.199Z,57.17
2022-10-18T10:09:46.352Z,56.68
2022-10-18T10:10:49.891Z,56.53
2022-10-18T10:11:55.859Z,56.59
2022-10-18T10:13:07.050Z,56.24
2022-10-18T10:14:13.870Z,56.71
2022-10-18T10:15:20.869Z,56.49
2022-10-18T10:16:24.057Z,55.99
2022-10-18T10:17:30.628Z,55.98
2022-10-18T10:18:38.546Z,54.79
2022-10-18T10:19:57.202Z,55.40
2022-10-18T10:21:03.441Z,55.90
2022-10-18T10:22:09.757Z,55.34
2022-10-18T10:23:20.119Z,55.27
2022-10-18T10:24:30.392Z,55.82
2022-10-18T10:25:36.088Z,55.60
2022-10-18T10:26:40.274Z,54.96
2022-10-18T10:27:46.129Z,55.06
2022-10-18T10:28:49.485Z,55.26
2022-10-18T10:30:04.199Z,54.61
2022-10-18T10:31:26.519Z,54.78
2022-10-18T10:32:31.881Z,54.99
2022-10-18T10:33:40.779Z,55.16
2022-10-18T10:34:44.968Z,54.73
2022-10-18T10:35:59.811Z,53.72
2022-10-18T10:37:03.019Z,54.67
2022-10-18T10:38:07.838Z,54.78
2022-10-18T10:39:18.549Z,54.42
2022-10-18T10:40:25.242Z,54.16
2022-10-18T10:42:59.935Z,52.87
2022-10-18T10:44:17.619Z,54.24
2022-10-18T10:45:21.088Z,53.75
2022-10-18T10:46:26.630Z,53.63
2022-10-18T10:47:32.168Z,53.58
2022-10-18T10:48:47.610Z,51.11
2022-10-18T10:49:50.581Z,53.19
2022-10-18T10:50:58.676Z,53.00
2022-10-18T10:52:26.310Z,53.03
2022-10-18T10:53:30.639Z,52.65
2022-10-18T10:54:36.936Z,52.71
2022-10-18T10:55:39.809Z,53.19
2022-10-18T10:56:54.226Z,50.15
2022-10-18T10:57:57.185Z,51.49
2022-10-18T10:59:08.646Z,51.60
2022-10-18T11:00:36.356Z,50.71
2022-10-18T11:01:40.370Z,52.21
2022-10-18T11:02:51.133Z,52.45
2022-10-18T11:04:26.115Z,50.89
2022-10-18T11:05:29.629Z,52.48
2022-10-18T11:06:50.097Z,49.15
2022-10-18T11:07:55.486Z,51.74
2022-10-18T11:09:00.619Z,51.66
2022-10-18T11:10:07.952Z,51.20
2022-10-18T11:11:20.633Z,50.68
2022-10-18T11:12:33.499Z,50.76
2022-10-18T11:13:56.994Z,48.39
2022-10-18T11:15:22.412Z,50.58
2022-10-18T11:16:32.988Z,50.98
2022-10-18T11:17:43.523Z,49.72
2022-10-18T11:18:50.910Z,50.79
2022-10-18T11:20:07.740Z,49.79
2022-10-18T11:21:13.661Z,50.71
2022-10-18T11:22:19.525Z,50.50
2022-10-18T11:23:27.419Z,49.74
2022-10-18T11:24:31.299Z,50.56
2022-10-18T11:25:49.255Z,48.67
2022-10-18T11:26:56.348Z,50.04
2022-10-18T11:28:03.291Z,49.32
2022-10-18T11:29:25.147Z,49.60
2022-10-18T11:30:38.098Z,50.25
2022-10-18T11:31:48.057Z,49.85
2022-10-18T11:32:58.858Z,49.90
2022-10-18T11:34:14.850Z,49.71
2022-10-18T11:35:34.579Z,48.66
2022-10-18T11:36:54.793Z,50.08
2022-10-18T11:38:15.626Z,50.14
2022-10-18T11:39:24.432Z,50.07
2022-10-18T11:40:43.889Z,49.85
2022-10-18T11:41:51.100Z,50.63
2022-10-18T11:42:59.310Z,50.30
2022-10-18T11:44:04.999Z,50.24
2022-10-18T11:45:19.459Z,49.54
2022-10-18T11:46:30.200Z,49.11
2022-10-18T11:47:39.958Z,49.47
2022-10-18T11:49:00.848Z,48.58
2022-10-18T11:50:12.318Z,49.04
2022-10-18T11:51:34.124Z,49.07
2022-10-18T11:52:47.364Z,49.70
2022-10-18T11:54:00.178Z,49.53
2022-10-18T11:55:17.671Z,48.37
2022-10-18T11:56:23.782Z,49.45
2022-10-18T11:57:41.191Z,47.46
2022-10-18T11:58:55.522Z,48.78
2022-10-18T12:00:04.452Z,49.49
2022-10-18T12:01:18.355Z,48.23
2022-10-18T12:02:39.971Z,48.93
2022-10-18T12:03:54.682Z,49.22
2022-10-18T12:06:32.078Z,48.73
2022-10-18T12:07:38.972Z,49.02
2022-10-18T12:08:45.048Z,49.19
2022-10-18T12:09:50.073Z,49.25
2022-10-18T12:11:05.525Z,48.75
2022-10-18T12:12:14.210Z,48.91
2022-10-18T12:13:19.699Z,49.07
2022-10-18T12:14:27.514Z,49.06
2022-10-18T12:15:32.267Z,48.92
2022-10-18T12:17:07.726Z,48.65
2022-10-18T12:18:06.085Z,48.30
2022-10-18T12:19:15.161Z,48.29
2022-10-18T12:20:24.789Z,48.54
2022-10-18T12:21:32.683Z,47.78
2022-10-18T12:22:38.728Z,48.49
2022-10-18T12:23:46.928Z,48.28
2022-10-18T12:24:50.182Z,48.53
2022-10-18T12:25:58.440Z,48.42
2022-10-18T12:27:03.066Z,48.45
2022-10-18T12:28:10.259Z,48.04
2022-10-18T12:29:19.947Z,47.39
2022-10-18T12:30:29.758Z,47.41
2022-10-18T12:31:39.034Z,48.03
2022-10-18T12:32:56.455Z,48.09
2022-10-18T12:34:25.811Z,47.08
2022-10-18T12:35:32.641Z,48.40
2022-10-18T12:36:51.806Z,47.15
2022-10-18T12:38:07.138Z,47.10
2022-10-18T12:39:14.427Z,47.61
2022-10-18T12:40:21.423Z,47.56
2022-10-18T12:41:27.501Z,47.43
2022-10-18T12:42:32.050Z,47.35
2022-10-18T12:43:37.882Z,47.37
2022-10-18T12:44:40.822Z,47.06
2022-10-18T12:45:53.628Z,47.28
2022-10-18T12:46:59.571Z,47.39
2022-10-18T12:48:05.058Z,46.99
2022-10-18T12:49:12.820Z,46.75
2022-10-18T12:50:28.610Z,44.54
2022-10-18T12:51:32.639Z,46.17
2022-10-18T12:52:37.417Z,46.14
2022-10-18T12:53:42.850Z,46.34
2022-10-18T12:55:04.490Z,44.30
2022-10-18T12:56:38.278Z,45.65
2022-10-18T12:58:15.672Z,43.89
2022-10-18T12:59:54.007Z,44.47
2022-10-18T13:00:58.871Z,46.15
2022-10-18T13:02:29.179Z,43.24
2022-10-18T13:04:01.279Z,45.19
2022-10-18T13:05:54.878Z,43.39
2022-10-18T13:07:19.884Z,43.24
2022-10-18T13:08:39.981Z,43.13
2022-10-18T13:09:46.369Z,45.54
2022-10-18T13:11:33.511Z,44.11
2022-10-18T13:12:59.017Z,44.67
2022-10-18T13:14:59.263Z,44.05
2022-10-18T13:17:01.655Z,43.02
2022-10-18T13:18:12.247Z,45.37
2022-10-18T13:19:22.169Z,45.35
2022-10-18T13:20:34.637Z,44.41
2022-10-18T13:21:44.617Z,44.43
2022-10-18T13:23:00.381Z,44.48
2022-10-18T13:24:18.397Z,42.31
2022-10-18T13:25:22.701Z,45.06
2022-10-18T13:26:32.749Z,44.82
2022-10-18T13:27:45.382Z,44.38
2022-10-18T13:28:54.797Z,45.12
2022-10-18T13:30:29.179Z,43.78
2022-10-18T13:31:40.398Z,43.50
2022-10-18T13:32:49.919Z,44.29
2022-10-18T13:33:54.028Z,44.54
2022-10-18T13:34:57.008Z,43.77
2022-10-18T13:36:02.450Z,44.75
2022-10-18T13:37:07.639Z,44.96
2022-10-18T13:38:48.689Z,44.17
2022-10-18T13:40:17.587Z,43.53
2022-10-18T13:42:34.088Z,45.31
2022-10-18T13:43:56.968Z,45.26
2022-10-18T13:45:37.762Z,44.63
2022-10-18T13:47:20.195Z,45.86
2022-10-18T13:48:49.269Z,45.57
2022-10-18T13:51:46.492Z,46.35
2022-10-18T13:53:29.919Z,45.87
2022-10-18T13:54:56.021Z,46.20
2022-10-18T13:56:18.899Z,46.63
2022-10-18T13:57:32.449Z,47.21
2022-10-18T13:58:48.740Z,47.35
2022-10-18T14:00:28.546Z,47.33
2022-10-18T14:01:41.746Z,47.53
2022-10-18T14:03:01.990Z,47.52
2022-10-18T14:05:11.120Z,47.87
2022-10-18T14:06:25.162Z,48.26
2022-10-18T14:07:28.539Z,48.24
2022-10-18T14:08:36.842Z,48.49
2022-10-18T14:09:49.867Z,48.48
2022-10-18T14:11:04.001Z,48.57
2022-10-18T14:12:15.139Z,48.73
2022-10-18T14:13:22.860Z,48.86
2022-10-18T14:14:34.198Z,48.87
2022-10-18T14:15:41.199Z,49.09
2022-10-18T14:16:48.277Z,49.21
2022-10-18T14:17:53.920Z,49.56
2022-10-18T14:19:01.938Z,49.68
2022-10-18T14:20:16.984Z,49.66
2022-10-18T14:21:30.257Z,49.58
2022-10-18T14:22:39.470Z,49.56
2022-10-18T14:23:44.858Z,49.56
2022-10-18T14:24:51.454Z,49.66
2022-10-18T14:25:58.869Z,49.48
2022-10-18T14:27:20.898Z,49.52
2022-10-18T14:28:36.325Z,49.25
2022-10-18T14:29:46.179Z,49.16
2022-10-18T14:30:53.827Z,48.88
2022-10-18T14:31:58.620Z,48.72
2022-10-18T14:33:01.796Z,48.30
2022-10-18T14:34:05.756Z,48.28
2022-10-18T14:35:33.648Z,48.23
2022-10-18T14:36:41.116Z,48.37
2022-10-18T14:37:44.094Z,48.24
2022-10-18T14:38:50.998Z,48.12
2022-10-18T14:39:53.940Z,48.24
2022-10-18T14:41:13.062Z,48.61
2022-10-18T14:42:21.880Z,48.95
2022-10-18T14:43:25.755Z,48.82
2022-10-18T14:44:31.719Z,48.99
2022-10-18T14:45:34.720Z,49.40